Kezdőlap
METAR-TAF:

METAR-TAF

Repülőterek :

Maun, Botswana

földrajzi szélesség: 19-59S, földrajzi hosszúság: 023-25E, magasság: 945 m

Jelenlegi meteorológiai megfigyelések

A jelentés 46 perccel ezelõtt készült, 00:00 UTC
Kelet-délkeleti szél 12 kt
Hőmérséklet 18°C
Páratartalom 42%
Légköri nyomás 1024 hPa
Látótávolság 10 km, vagy több
felhőtlen 1500 m magasságban, és nincs gomolyfelhõ

METAR: FBMN 230000Z 11012KT CAVOK 18/05 Q1024

Idő: 02:46 (00:46 UTC)

Előrejelzés

A jelentés 3 órával és 46 perccel ezelõtt készült, 21:00 UTC
Az előrejelzés 23-én 00 óra UTC és 23-én 09 óra UTC között érvényes
Keleti szél 15 kt
Látótávolság 10 km, vagy több
felhőtlen 1500 m magasságban, és nincs gomolyfelhõ

TAF: FBMN 222100Z 2300/2309 10015KT CAVOK

Meteorológiai megfigyelések és előrejelzések több, mint 4000 repülőtéren (METAR és TAF jelentéseket).

A térképen piros és sárga pontok jelzik az elérhető meteorológiai állomásokat.

Mozgassa az egeret a pont fölött, hogy megjelenjen az állomás neve.

Azután kattintson az időjárási megfigyelések és előrejelzések megtekintéséhez.

A térkép megváltoztatása: kattintson a fekete keresztel jelölt zöld gombra ráközelítéshez, a vonallal jelölt zöld gombra távolításhoz, vagy a zöld nyilakra a szomszédos térképek eléréséhez.


METAR-TAF: